Floresville, TX (78114)

5:38 AM CDT on August 29, 2016 (GMT -0500)
Wilson County TX, Bentwood subdiv | | Change Station

Elev 472 ft 29.20 °N, 98.20 °W | Updated 1 minute ago

Clear
Clear
74.2 °F
Feels Like 72 °F
N
1.0
Wind Variable Wind from ENE
Gusts 3.0 mph

Today
High -- | Low -- °F
--% Chance of Precip.
Yesterday
High -- | Low -- °F
Precip. -- in
Pressure 29.91 in
Visibility 10.0 miles
Clouds Clear
Heat Index 72 °F
Dew Point Not available.
Humidity Not available.
Rainfall 0.00 in
Snow Depth Not available.
7:09 AM 7:57 PM
Waning Crescent, 9% visible
METAR KSSF 290953Z AUTO 02005KT 10SM CLR 24/21 A2995 RMK AO2 SLP129 T02390211 $
Pressure 29.91 in
Visibility 10.0 miles
Clouds Clear
Heat Index 72 °F
Dew Point Not available.
Humidity Not available.
Rainfall 0.00 in
Snow Depth Not available.
7:09 AM 7:57 PM
Waning Crescent, 9% visible
METAR KSSF 290953Z AUTO 02005KT 10SM CLR 24/21 A2995 RMK AO2 SLP129 T02390211 $

10-Day Weather Forecast

Almanac

Astronomy

Aug. 29, 2016 Rise Set
Actual Time
Civil Twilight
Nautical Twilight
Astronomical Twilight
Moon
Length of Visible Light
Length of Day
Tomorrow will be .
, % of the Moon is Illuminated

Today's Extremes

State Highs State Lows

Community

WunderPhotos

Upload Photos

1,935,802 photos uploaded!

WunderBlog® & News

Nearby

Air Quality

  Air Quality AQ Index Pollutant
Not available.

Snow Depth

Station Depth Elevation

Earthquake Activity

City Distance Mag. Time & Date
Minimum magnitude displayed is 2.5.

Coastal Water Temperatures

Place Temperature

Stations

Nearby Weather Stations

Station Location Temp. Windchill Dew Point Humidity Wind Precip. Elev Updated Type
                   

Watches & Warnings

There are currently no watches in effect.